Time;durP1;ratioP1;P1;durP2;ratioP2;P2;SDS_P1;SDS_P2;PMS_P1;PMS_P2;Temp;Humidity;BMP_temperature;BMP_pressure;BME280_temperature;BME280_humidity;BME280_pressure;Samples;Min_cycle;Max_cycle;Signal;HPM_P1;HPM_P2
2022/01/14 00:02:03;;;;;;;16.97;11.97;;;;;;;9.55;61.25;100574.98;2389079;81;25717;-85
2022/01/14 00:05:25;;;;;;;18.27;11.43;;;;;;;9.55;61.27;100564.58;2412569;81;25764;-85
2022/01/14 00:08:46;;;;;;;16.07;10.80;;;;;;;9.56;61.24;100568.55;2409414;81;25599;-86
2022/01/14 00:12:16;;;;;;;18.42;13.13;;;;;;;9.58;61.21;100569.88;2419799;80;26292;-86
2022/01/14 00:15:35;;;;;;;17.70;10.75;;;;;;;9.57;61.21;100562.48;2417939;80;25705;-86
2022/01/14 00:18:58;;;;;;;15.68;10.88;;;;;;;9.58;61.21;100568.57;2383265;80;25698;-87
2022/01/14 00:22:19;;;;;;;15.28;10.88;;;;;;;9.57;61.22;100565.09;2411156;81;25746;-85
2022/01/14 00:33:08;;;;;;;16.10;11.28;;;;;;;9.59;61.18;100535.22;2405905;80;25619;-85
2022/01/14 00:36:29;;;;;;;13.58;10.10;;;;;;;9.58;61.20;100520.00;2415652;80;25736;-87
2022/01/14 00:39:50;;;;;;;11.63;9.73;;;;;;;9.58;61.15;100525.63;2399248;81;25704;-85
2022/01/14 00:43:13;;;;;;;19.10;9.80;;;;;;;9.57;61.15;100518.24;2412742;80;25604;-85
2022/01/14 00:46:34;;;;;;;13.18;10.88;;;;;;;9.58;61.14;100521.72;2410692;80;25756;-85
2022/01/14 00:49:56;;;;;;;15.08;9.98;;;;;;;9.58;61.13;100508.70;2403079;81;25712;-85
2022/01/14 00:53:17;;;;;;;11.68;9.00;;;;;;;9.59;61.11;100501.39;2413385;81;26241;-86
2022/01/14 01:00:03;;;;;;;13.78;9.55;;;;;;;9.58;61.10;100499.17;2411641;81;25638;-85
2022/01/14 01:03:28;;;;;;;9.80;8.63;;;;;;;9.58;61.11;100497.87;2418583;80;25685;-84
2022/01/14 01:06:49;;;;;;;14.07;9.18;;;;;;;9.58;61.08;100490.06;2408073;80;25665;-84
2022/01/14 01:10:12;;;;;;;10.70;9.10;;;;;;;9.58;61.06;100494.39;2409686;81;25641;-86
2022/01/14 01:13:43;;;;;;;11.55;8.73;;;;;;;9.61;61.09;100497.09;2412854;80;25670;-84
2022/01/14 01:17:04;;;;;;;14.90;9.75;;;;;;;9.60;61.04;100488.41;2418210;81;25913;-85
2022/01/14 01:20:25;;;;;;;10.30;8.25;;;;;;;9.60;61.04;100480.59;2408151;81;25264;-84
2022/01/14 01:23:46;;;;;;;12.82;9.20;;;;;;;9.61;61.00;100473.66;2420305;80;25185;-84
2022/01/14 01:27:09;;;;;;;11.30;8.18;;;;;;;9.62;60.99;100452.02;2407427;81;25180;-84
2022/01/14 01:33:52;;;;;;;10.80;8.93;;;;;;;9.61;60.95;100451.11;2407799;81;25701;-85
2022/01/14 01:37:13;;;;;;;13.13;9.45;;;;;;;9.61;60.93;100443.73;2410645;81;25698;-87
2022/01/14 01:40:35;;;;;;;10.90;8.53;;;;;;;9.60;60.92;100440.67;2405051;80;25706;-85
2022/01/14 01:43:57;;;;;;;11.00;8.55;;;;;;;9.61;60.91;100442.43;2411033;81;25685;-84
2022/01/14 01:47:21;;;;;;;11.43;8.70;;;;;;;9.60;60.88;100450.66;2413398;80;25662;-84
2022/01/14 01:50:45;;;;;;;12.25;7.85;;;;;;;9.61;60.84;100443.73;2410960;80;25491;-83
2022/01/14 01:54:07;;;;;;;10.20;8.38;;;;;;;9.61;60.84;100448.94;2408739;80;25649;-84
2022/01/14 01:57:28;;;;;;;9.28;7.55;;;;;;;9.59;60.82;100430.69;2410410;80;25625;-85
2022/01/14 02:00:50;;;;;;;10.65;8.10;;;;;;;9.60;60.83;100432.87;2411228;81;25559;-84
2022/01/14 02:04:12;;;;;;;9.28;8.35;;;;;;;9.60;60.82;100431.14;2407923;81;25594;-86
2022/01/14 02:07:34;;;;;;;13.45;8.75;;;;;;;9.60;60.80;100425.94;2407990;81;25738;-83
2022/01/14 02:10:56;;;;;;;14.63;9.10;;;;;;;9.62;60.80;100420.36;2412167;80;25693;-85
2022/01/14 02:25:11;;;;;;;12.47;8.15;;;;;;;9.62;60.73;100385.23;2409893;81;25639;-85
2022/01/14 02:28:32;;;;;;;9.53;7.87;;;;;;;9.63;60.71;100383.50;2422123;80;26446;-84
2022/01/14 02:31:53;;;;;;;12.25;7.72;;;;;;;9.62;60.70;100384.34;2412294;81;25666;-83
2022/01/14 02:35:15;;;;;;;13.28;8.65;;;;;;;9.63;60.69;100384.80;2415126;81;25689;-85
2022/01/14 02:38:37;;;;;;;9.05;7.87;;;;;;;9.64;60.66;100358.80;2405902;81;25776;-86
2022/01/14 02:41:58;;;;;;;9.03;7.78;;;;;;;9.64;60.63;100346.21;2401007;81;25613;-86
2022/01/14 02:45:21;;;;;;;10.53;7.90;;;;;;;9.62;60.66;100340.98;2412264;80;25606;-84
2022/01/14 02:48:43;;;;;;;8.78;7.60;;;;;;;9.63;60.63;100339.25;2414966;81;25721;-85
2022/01/14 02:52:07;;;;;;;7.90;7.17;;;;;;;9.62;60.61;100331.87;2408626;80;25655;-84
2022/01/14 02:55:32;;;;;;;11.20;7.45;;;;;;;9.62;60.60;100316.25;2421591;81;25760;-84
2022/01/14 02:58:57;;;;;;;11.80;7.62;;;;;;;9.62;60.61;100317.55;2418573;81;25683;-83
2022/01/14 03:02:20;;;;;;;9.60;6.47;;;;;;;9.64;60.57;100311.06;2409050;80;25894;-85
2022/01/14 03:05:41;;;;;;;8.60;7.40;;;;;;;9.63;60.57;100310.19;2415007;81;25660;-84
2022/01/14 03:09:04;;;;;;;11.83;7.17;;;;;;;9.62;60.55;100296.73;2412292;81;26143;-86
2022/01/14 03:12:26;;;;;;;8.85;7.40;;;;;;;9.62;60.55;100298.45;2416145;81;26153;-85
2022/01/14 03:15:47;;;;;;;8.55;7.03;;;;;;;9.63;60.53;100306.72;2414242;81;25772;-85
2022/01/14 03:19:19;;;;;;;13.18;7.62;;;;;;;9.63;60.52;100300.20;2408295;80;25644;-84
2022/01/14 03:22:35;;;;;;;9.35;6.95;;;;;;;9.63;60.52;100300.20;2407912;80;25682;-85
2022/01/14 03:25:59;;;;;;;10.30;7.20;;;;;;;9.63;60.52;100294.58;2415989;81;25657;-84
2022/01/14 03:29:19;;;;;;;10.58;7.25;;;;;;;9.63;60.49;100295.00;2416811;81;25690;-84
2022/01/14 03:32:42;;;;;;;8.68;6.45;;;;;;;9.63;60.48;100310.63;2409035;81;25590;-86
2022/01/14 03:36:05;;;;;;;7.03;6.33;;;;;;;9.62;60.45;100322.76;2422403;81;25604;-85
2022/01/14 03:39:27;;;;;;;7.97;6.50;;;;;;;9.61;60.44;100322.27;2417071;81;25743;-85
2022/01/14 03:42:49;;;;;;;10.15;6.33;;;;;;;9.61;60.44;100330.08;2408138;81;25562;-85
2022/01/14 03:46:10;;;;;;;8.25;6.50;;;;;;;9.60;60.42;100323.55;2412243;81;25603;-85
2022/01/14 03:49:32;;;;;;;11.12;6.85;;;;;;;9.60;60.42;100333.53;2410069;81;26192;-85
2022/01/14 03:52:53;;;;;;;8.23;5.95;;;;;;;9.59;60.40;100334.39;2411883;81;25597;-83
2022/01/14 03:56:16;;;;;;;6.75;6.03;;;;;;;9.60;60.39;100320.95;2423654;80;25614;-86
2022/01/14 03:59:37;;;;;;;6.87;5.05;;;;;;;9.60;60.38;100311.84;2410171;81;25910;-86
2022/01/14 04:02:58;;;;;;;7.35;5.47;;;;;;;9.61;60.38;100326.60;2408022;80;25626;-85
2022/01/14 04:06:20;;;;;;;9.18;6.22;;;;;;;9.60;60.36;100324.42;2411869;81;25586;-85
2022/01/14 04:09:41;;;;;;;5.85;5.08;;;;;;;9.60;60.36;100324.85;2408233;80;25712;-85
2022/01/14 04:16:25;;;;;;;6.75;5.12;;;;;;;9.59;60.34;100311.39;2406306;80;25699;-86
2022/01/14 04:19:47;;;;;;;6.42;5.17;;;;;;;9.60;60.30;100316.61;2410240;80;25773;-86
2022/01/14 04:23:11;;;;;;;5.65;5.15;;;;;;;9.59;60.31;100309.66;2417680;81;25652;-86
2022/01/14 04:26:32;;;;;;;5.90;5.28;;;;;;;9.59;60.29;100297.95;2410779;81;26310;-84
2022/01/14 04:29:54;;;;;;;5.28;4.78;;;;;;;9.59;60.28;100295.34;2409912;81;25609;-85
2022/01/14 04:33:15;;;;;;;6.45;4.83;;;;;;;9.59;60.27;100291.87;2418777;80;25677;-85
2022/01/14 04:36:36;;;;;;;8.63;5.45;;;;;;;9.58;60.28;100296.59;2414265;80;25848;-84
2022/01/14 04:39:58;;;;;;;5.67;5.17;;;;;;;9.58;60.26;100277.94;2411933;80;25731;-86
2022/01/14 04:43:19;;;;;;;5.10;4.62;;;;;;;9.58;60.24;100269.26;2417621;80;25686;-87
2022/01/14 04:50:08;;;;;;;5.35;4.55;;;;;;;9.58;60.25;100258.84;2414688;81;25920;-84
2022/01/14 04:53:30;;;;;;;5.47;4.08;;;;;;;9.57;60.25;100237.58;2408073;81;25157;-84
2022/01/14 04:56:56;;;;;;;8.03;4.67;;;;;;;9.57;60.22;100225.87;2408241;81;25654;-86
2022/01/14 05:00:21;;;;;;;4.30;3.90;;;;;;;9.57;60.23;100228.05;2410477;80;25610;-84
2022/01/14 05:03:43;;;;;;;5.45;4.95;;;;;;;9.57;60.22;100235.85;2410911;80;25677;-84
2022/01/14 05:07:04;;;;;;;5.72;4.25;;;;;;;9.57;60.19;100234.55;2408129;81;25658;-83
2022/01/14 05:13:50;;;;;;;4.33;3.92;;;;;;;9.57;60.19;100229.34;2411396;81;25754;-84
2022/01/14 05:17:11;;;;;;;4.40;3.70;;;;;;;9.57;60.19;100217.64;2411361;81;25551;-85
2022/01/14 05:20:32;;;;;;;5.22;3.72;;;;;;;9.58;60.19;100209.40;2418522;80;25589;-85
2022/01/14 05:23:55;;;;;;;3.60;3.17;;;;;;;9.58;60.18;100211.58;2411900;81;25665;-86
2022/01/14 05:27:17;;;;;;;3.87;3.33;;;;;;;9.59;60.18;100205.55;2408207;81;25749;-86
2022/01/14 05:30:38;;;;;;;3.40;2.52;;;;;;;9.58;60.17;100189.88;2411072;81;25682;-85
2022/01/14 05:34:00;;;;;;;3.95;3.30;;;;;;;9.60;60.16;100190.81;2405236;81;25631;-86
2022/01/14 05:37:21;;;;;;;3.45;3.12;;;;;;;9.61;60.16;100178.25;2412075;81;25621;-85
2022/01/14 05:40:43;;;;;;;5.30;3.77;;;;;;;9.61;60.15;100187.36;2408014;81;25776;-84
2022/01/14 05:44:05;;;;;;;3.00;2.58;;;;;;;9.61;60.12;100180.42;2411074;81;25621;-86
2022/01/14 05:47:26;;;;;;;3.30;2.62;;;;;;;9.62;60.12;100168.31;2416314;80;25601;-85
2022/01/14 05:50:48;;;;;;;3.55;2.50;;;;;;;9.62;60.10;100175.70;2411779;80;25732;-84
2022/01/14 05:54:09;;;;;;;2.98;2.40;;;;;;;9.63;60.11;100163.56;2422559;80;25538;-85
2022/01/14 05:57:34;;;;;;;3.52;2.47;;;;;;;9.63;60.09;100150.55;2384572;80;25785;-84
2022/01/14 06:00:54;;;;;;;3.90;2.45;;;;;;;9.63;60.06;100147.95;2397658;81;25775;-86
2022/01/14 06:04:15;;;;;;;3.80;2.22;;;;;;;9.64;60.06;100151.00;2402406;82;25837;-85
2022/01/14 06:07:36;;;;;;;4.40;2.77;;;;;;;9.63;60.04;100139.70;2378939;82;25685;-85
2022/01/14 06:10:58;;;;;;;3.20;2.20;;;;;;;9.64;60.03;100151.00;2380272;82;25909;-87
2022/01/14 06:14:22;;;;;;;3.12;1.90;;;;;;;9.66;60.68;100139.78;2388911;81;25679;-86
2022/01/14 06:17:43;;;;;;;2.72;2.27;;;;;;;9.74;61.24;100145.59;2406137;81;26052;-86
2022/01/14 06:21:08;;;;;;;2.60;2.20;;;;;;;9.77;61.06;100145.23;2390794;81;26373;-84
2022/01/14 06:24:29;;;;;;;2.85;2.55;;;;;;;9.78;61.15;100135.69;2387723;82;25762;-85
2022/01/14 06:27:53;;;;;;;2.72;2.05;;;;;;;9.77;61.15;100132.22;2382470;82;25622;-85
2022/01/14 06:31:15;;;;;;;3.83;1.67;;;;;;;9.77;61.14;100129.61;2384830;81;25867;-83
2022/01/14 06:34:36;;;;;;;1.75;1.60;;;;;;;9.78;61.07;100110.96;2400775;81;26233;-83
2022/01/14 06:37:59;;;;;;;2.47;1.47;;;;;;;9.78;61.00;100112.27;2393206;82;25706;-83
2022/01/14 06:41:21;;;;;;;2.00;1.60;;;;;;;9.78;60.93;100114.44;2378850;82;25553;-85
2022/01/14 06:44:43;;;;;;;2.12;1.40;;;;;;;9.79;60.85;100112.31;2371961;82;25721;-83
2022/01/14 06:48:06;;;;;;;2.27;1.70;;;;;;;9.79;60.80;100120.12;2376680;82;25662;-83
2022/01/14 06:51:32;;;;;;;2.37;1.72;;;;;;;9.80;60.76;100138.80;2396740;82;25823;-83
2022/01/14 06:54:51;;;;;;;5.33;1.82;;;;;;;9.81;60.71;100127.95;2363852;82;25823;-85
2022/01/14 06:58:12;;;;;;;2.87;1.72;;;;;;;9.81;60.63;100121.45;2383822;82;25728;-83
2022/01/14 07:01:34;;;;;;;1.90;1.50;;;;;;;9.80;60.60;100104.95;2401943;82;25687;-83
2022/01/14 07:04:55;;;;;;;3.65;2.17;;;;;;;9.81;60.56;100108.42;2390921;80;26467;-84
2022/01/14 07:08:17;;;;;;;4.58;2.40;;;;;;;9.80;60.54;100116.67;2425130;80;25874;-84
2022/01/14 07:11:39;;;;;;;5.22;1.75;;;;;;;9.81;60.51;100124.92;2359232;81;25730;-85
2022/01/14 07:15:02;;;;;;;2.15;1.37;;;;;;;9.81;60.48;100105.83;2401423;81;26486;-81
2022/01/14 07:18:23;;;;;;;3.37;1.67;;;;;;;9.81;60.46;100099.31;2420263;81;25761;-81
2022/01/14 07:21:46;;;;;;;3.47;1.87;;;;;;;9.80;60.44;100098.44;2420481;80;25649;-84
2022/01/14 07:25:09;;;;;;;1.30;1.20;;;;;;;9.81;60.42;100092.81;2372466;79;26073;-86
2022/01/14 07:28:33;;;;;;;2.37;1.10;;;;;;;9.81;60.40;100094.11;2406572;80;26011;-86
2022/01/14 07:31:55;;;;;;;2.92;1.50;;;;;;;9.81;60.83;100079.80;2414005;81;25803;-88
2022/01/14 07:35:16;;;;;;;1.75;1.27;;;;;;;9.86;61.09;100074.28;2421880;81;25591;-86
2022/01/14 07:38:37;;;;;;;1.98;1.40;;;;;;;9.86;61.08;100084.69;2413685;80;25760;-84
2022/01/14 07:41:59;;;;;;;1.67;1.35;;;;;;;9.86;61.14;100081.66;2404001;81;25757;-85
2022/01/14 07:45:23;;;;;;;1.98;1.50;;;;;;;9.86;61.11;100074.28;2407008;81;25728;-88
2022/01/14 07:48:45;;;;;;;3.70;1.52;;;;;;;9.85;61.06;100091.59;2409366;81;26137;-86
2022/01/14 07:52:06;;;;;;;2.62;1.60;;;;;;;9.86;61.04;100078.19;2392684;80;25584;-85
2022/01/14 07:55:30;;;;;;;3.00;2.08;;;;;;;9.87;61.01;100086.02;2420538;80;25709;-87
2022/01/14 07:58:52;;;;;;;1.85;1.65;;;;;;;9.87;60.96;100072.99;2413188;80;25753;-85
2022/01/14 08:02:18;;;;;;;2.62;1.82;;;;;;;9.88;60.88;100078.65;2394348;80;25670;-84
2022/01/14 08:05:40;;;;;;;3.05;1.70;;;;;;;9.89;60.87;100060.03;2407483;80;25616;-85
2022/01/14 08:09:01;;;;;;;1.85;1.75;;;;;;;9.90;60.80;100037.91;2422341;81;25786;-85
2022/01/14 08:12:22;;;;;;;1.45;1.20;;;;;;;9.90;60.77;100052.23;2421286;80;25785;-85
2022/01/14 08:15:44;;;;;;;1.90;1.40;;;;;;;9.92;60.74;100058.36;2409182;80;25663;-84
2022/01/14 08:19:05;;;;;;;2.33;1.50;;;;;;;9.94;60.68;100046.23;2405152;81;25758;-86
2022/01/14 08:22:28;;;;;;;2.98;1.95;;;;;;;9.94;60.67;100033.21;2403587;79;25626;-86
2022/01/14 08:25:53;;;;;;;2.98;1.95;;;;;;;9.97;60.64;100035.44;2424346;80;25888;-85
2022/01/14 08:29:13;;;;;;;4.47;1.72;;;;;;;9.97;60.63;100027.20;2400330;80;25703;-83
2022/01/14 08:32:34;;;;;;;2.77;1.27;;;;;;;9.99;60.56;100032.03;2389262;81;25664;-88
2022/01/14 08:35:55;;;;;;;2.33;2.02;;;;;;;10.01;60.52;100038.55;2427913;81;25668;-85
2022/01/14 08:39:18;;;;;;;2.45;1.98;;;;;;;10.01;60.50;100045.06;2402501;80;25234;-87
2022/01/14 08:42:39;;;;;;;2.37;1.70;;;;;;;10.01;60.50;100019.02;2425642;81;25634;-88
2022/01/14 08:46:05;;;;;;;2.95;1.60;;;;;;;10.03;60.46;100008.22;2416929;81;25756;-88
2022/01/14 08:49:29;;;;;;;3.00;2.00;;;;;;;10.03;60.43;100027.33;2400355;81;26356;-86
2022/01/14 08:52:54;;;;;;;2.67;2.30;;;;;;;10.03;60.44;100026.45;2411281;81;26322;-86
2022/01/14 08:56:18;;;;;;;2.67;2.05;;;;;;;10.02;60.43;100022.94;2421965;81;25702;-88
2022/01/14 08:59:38;;;;;;;2.60;2.08;;;;;;;10.02;60.41;100022.94;2410496;80;25689;-88
2022/01/14 09:03:01;;;;;;;2.30;2.05;;;;;;;10.05;60.40;100020.83;2393879;81;25733;-89
2022/01/14 09:06:26;;;;;;;2.87;2.05;;;;;;;10.05;60.41;100018.23;2427186;80;25976;-84
2022/01/14 09:09:47;;;;;;;3.12;2.02;;;;;;;10.05;60.38;100021.70;2418280;81;25811;-90
2022/01/14 09:13:11;;;;;;;2.27;2.05;;;;;;;10.06;60.38;100013.06;2422300;80;25785;-88
2022/01/14 09:16:36;;;;;;;3.70;3.37;;;;;;;10.07;60.37;100007.00;2415966;80;25748;-87
2022/01/14 09:19:58;;;;;;;4.20;2.58;;;;;;;10.09;60.36;100020.04;2398569;80;25828;-86
2022/01/14 09:23:25;;;;;;;3.67;2.37;;;;;;;10.10;60.35;100019.21;2417019;80;25746;-85
2022/01/14 09:26:42;;;;;;;2.60;2.27;;;;;;;10.12;60.31;100024.91;2421984;81;25755;-85
2022/01/14 09:30:06;;;;;;;3.65;2.55;;;;;;;10.14;60.30;99996.28;2404004;81;25780;-86
2022/01/14 09:33:30;;;;;;;2.62;2.35;;;;;;;10.16;60.25;100003.70;2427728;80;25233;-87
2022/01/14 09:36:51;;;;;;;2.40;2.05;;;;;;;10.20;60.17;100002.04;2421138;81;25731;-83
2022/01/14 09:40:16;;;;;;;2.55;2.22;;;;;;;10.21;60.18;99997.27;2384916;80;45108;-85
2022/01/14 09:43:38;;;;;;;2.67;2.47;;;;;;;10.25;60.10;99989.96;2424653;80;26414;-88
2022/01/14 09:47:00;;;;;;;2.58;2.17;;;;;;;10.26;60.14;99996.95;2401231;80;25292;-86
2022/01/14 09:50:24;;;;;;;2.50;2.30;;;;;;;10.29;60.08;99996.61;2429546;81;25923;-86
2022/01/14 09:53:46;;;;;;;2.92;2.42;;;;;;;10.33;60.03;99991.91;2412806;80;26290;-85
2022/01/14 09:57:12;;;;;;;2.30;2.10;;;;;;;10.36;59.98;99985.84;2422859;80;25814;-85
2022/01/14 10:00:34;;;;;;;4.45;2.42;;;;;;;10.39;59.99;99974.17;2428908;80;25570;-87
2022/01/14 10:04:01;;;;;;;2.33;2.00;;;;;;;10.40;59.98;99981.17;2393675;81;25852;-86
2022/01/14 10:07:25;;;;;;;3.20;2.15;;;;;;;10.42;59.99;99967.72;2375198;81;25820;-85
2022/01/14 10:10:53;;;;;;;2.37;2.12;;;;;;;10.43;59.93;99953.86;2397504;81;25594;-84
2022/01/14 10:14:17;;;;;;;3.08;2.45;;;;;;;10.44;59.99;99974.28;2386513;81;25707;-84
2022/01/14 10:17:42;;;;;;;2.77;2.58;;;;;;;10.44;59.94;99949.09;2433089;81;25730;-82
2022/01/14 10:21:06;;;;;;;3.83;2.37;;;;;;;10.46;59.96;99955.62;2435703;80;25677;-84
2022/01/14 10:24:30;;;;;;;3.27;1.90;;;;;;;10.47;59.89;99941.76;2419514;81;25765;-88
2022/01/14 10:27:54;;;;;;;2.27;2.02;;;;;;;10.49;59.93;99946.55;2393174;81;25583;-85
2022/01/14 10:31:16;;;;;;;2.10;1.90;;;;;;;10.50;59.88;99947.03;2372594;81;25805;-91
2022/01/14 10:34:37;;;;;;;2.70;2.50;;;;;;;10.51;59.88;99941.83;2420770;80;25752;-83
2022/01/14 10:38:06;;;;;;;2.52;1.90;;;;;;;10.53;59.84;99937.92;2412399;81;25662;-80
2022/01/14 10:41:30;;;;;;;3.03;2.73;;;;;;;10.54;59.84;99918.85;2402404;80;25556;-85
2022/01/14 10:44:52;;;;;;;3.05;2.30;;;;;;;10.55;59.81;99925.81;2396082;81;25679;-80
2022/01/14 10:48:32;;;;;;;1.57;1.47;;;;;;;10.57;59.78;99913.69;2398710;80;25747;-81
2022/01/14 10:52:19;;;;;;;2.98;1.90;;;;;;;10.57;59.82;99911.95;2430788;80;25796;-79
2022/01/14 10:55:48;;;;;;;2.65;1.90;;;;;;;10.60;59.87;99919.83;2403397;81;25756;-80
2022/01/14 10:59:10;;;;;;;2.60;2.05;;;;;;;10.63;59.81;99918.98;2384879;82;25630;-81
2022/01/14 11:02:41;;;;;;;3.77;1.98;;;;;;;10.65;59.85;99921.20;2374235;82;25697;-81
2022/01/14 11:06:29;;;;;;;2.30;1.70;;;;;;;10.68;59.82;99892.57;2380531;82;25765;-80
2022/01/14 11:09:52;;;;;;;3.27;1.57;;;;;;;10.70;59.82;99906.52;2402853;81;25662;-82
2022/01/14 11:13:17;;;;;;;2.70;1.82;;;;;;;10.74;59.83;99907.44;2396226;80;25675;-84
2022/01/14 11:16:38;;;;;;;4.58;1.55;;;;;;;10.76;59.79;99909.63;2373514;81;25676;-81
2022/01/14 11:20:00;;;;;;;4.50;1.65;;;;;;;10.77;59.80;99899.67;2398126;81;25691;-81
2022/01/14 11:23:21;;;;;;;2.17;1.37;;;;;;;10.78;59.79;99895.77;2394717;81;25638;-79
2022/01/14 11:31:41;;;;;;;1.90;1.47;;;;;;;10.63;59.87;99889.91;2441741;80;25931;-77
2022/01/14 11:35:08;;;;;;;1.40;1.07;;;;;;;10.45;60.42;99888.73;2417010;80;25794;-79
2022/01/14 11:38:43;;;;;;;1.20;0.80;;;;;;;10.31;60.70;99877.65;2384558;80;25837;-81
2022/01/14 11:42:14;;;;;;;2.33;1.00;;;;;;;10.22;60.79;99882.66;2289229;83;25756;-76
2022/01/14 11:45:50;;;;;;;2.98;0.95;;;;;;;10.20;61.07;99871.36;2282880;84;26483;-81
2022/01/14 11:49:34;;;;;;;2.27;1.02;;;;;;;10.17;61.21;99881.72;2284510;84;26542;-77
2022/01/14 11:52:57;;;;;;;2.33;1.30;;;;;;;10.16;61.19;99877.38;2302427;84;25889;-80
2022/01/14 11:56:36;;;;;;;1.70;1.12;;;;;;;10.10;61.37;99880.73;2312670;83;25678;-79
2022/01/14 11:59:57;;;;;;;2.03;1.07;;;;;;;10.09;61.44;99884.60;2304874;84;25773;-79
2022/01/14 12:03:26;;;;;;;3.15;1.12;;;;;;;10.08;61.51;99888.06;2303400;84;25726;-78
2022/01/14 12:06:57;;;;;;;1.77;1.10;;;;;;;10.06;61.58;99884.58;2309015;84;25753;-77
2022/01/14 12:10:25;;;;;;;3.42;1.27;;;;;;;10.06;61.59;99894.56;2307902;85;25910;-80
2022/01/14 12:13:55;;;;;;;4.47;1.02;;;;;;;10.07;61.66;99883.28;2282685;85;25733;-79
2022/01/14 12:17:20;;;;;;;1.10;0.93;;;;;;;10.07;61.59;99881.98;2291608;85;26484;-78
2022/01/14 12:20:50;;;;;;;1.90;1.00;;;;;;;10.05;61.63;99876.29;2342870;82;25566;-83
2022/01/14 12:24:28;;;;;;;2.15;1.27;;;;;;;10.06;61.64;99866.34;2374608;81;25864;-78
2022/01/14 12:27:52;;;;;;;4.42;1.80;;;;;;;10.10;61.67;99874.66;2390309;81;25638;-85
2022/01/14 12:31:13;;;;;;;2.30;1.05;;;;;;;10.09;61.53;99884.20;2400515;81;25783;-82
2022/01/14 12:34:41;;;;;;;1.80;1.00;;;;;;;10.20;61.59;99871.36;2414831;81;25754;-82
2022/01/14 12:38:03;;;;;;;4.15;1.25;;;;;;;10.32;61.39;99874.18;2426340;80;25665;-84
2022/01/14 12:41:24;;;;;;;1.75;1.00;;;;;;;10.43;61.21;99888.72;2424040;80;25621;-83
2022/01/14 12:44:47;;;;;;;3.98;1.47;;;;;;;10.50;61.05;99881.44;2425464;81;25633;-85
2022/01/14 12:52:03;;;;;;;;;;;;;;;10.64;60.71;99882.95;2397716;81;25686;-82
2022/01/14 12:55:25;;;;;;;3.02;1.37;;;;;;;10.70;60.50;99887.36;2426000;80;25701;-85
2022/01/14 12:59:04;;;;;;;2.75;1.27;;;;;;;10.71;60.35;99875.67;2429723;81;25673;-84
2022/01/14 13:02:34;;;;;;;2.47;1.10;;;;;;;10.74;60.18;99880.94;2422560;80;25927;-83
2022/01/14 13:06:01;;;;;;;2.62;1.10;;;;;;;10.78;60.01;99877.95;2430292;80;25766;-83
2022/01/14 13:09:32;;;;;;;2.72;1.45;;;;;;;10.83;59.85;99872.35;2420703;79;25794;-83
2022/01/14 13:12:53;;;;;;;3.42;1.30;;;;;;;10.86;59.63;99886.74;2436008;79;25592;-84
2022/01/14 13:16:15;;;;;;;4.22;1.10;;;;;;;10.92;59.47;99892.48;2416608;80;26455;-83
2022/01/14 13:19:39;;;;;;;3.83;1.95;;;;;;;10.96;59.31;99882.53;2428302;80;25746;-84
2022/01/14 13:23:00;;;;;;;2.37;1.25;;;;;;;11.00;59.14;99891.75;2393856;80;25551;-84
2022/01/14 13:26:23;;;;;;;2.67;1.40;;;;;;;11.02;58.94;99887.41;2410685;80;25598;-82
2022/01/14 13:29:57;;;;;;;2.05;1.40;;;;;;;11.03;58.77;99893.06;2435547;80;25744;-83
2022/01/14 13:33:20;;;;;;;2.75;1.27;;;;;;;11.05;58.64;99884.84;2425581;80;25687;-83
2022/01/14 13:36:43;;;;;;;3.10;1.32;;;;;;;11.09;58.46;99879.24;2401986;80;25666;-84
2022/01/14 13:40:12;;;;;;;5.25;1.45;;;;;;;11.12;58.31;99897.55;2424944;80;25606;-85
2022/01/14 13:43:39;;;;;;;7.10;1.40;;;;;;;11.12;58.17;99896.24;2418168;80;26346;-85
2022/01/14 13:47:06;;;;;;;2.90;1.40;;;;;;;11.12;58.16;99901.46;2421067;80;26376;-84
2022/01/14 13:50:30;;;;;;;2.87;1.47;;;;;;;11.13;58.09;99896.69;2410045;80;25502;-84
2022/01/14 13:53:51;;;;;;;2.75;1.57;;;;;;;11.14;58.05;99907.59;2407790;80;25739;-84
2022/01/14 13:57:17;;;;;;;2.85;1.30;;;;;;;11.15;58.02;99898.90;2409562;81;25669;-83
2022/01/14 14:00:41;;;;;;;1.60;1.10;;;;;;;11.16;57.98;99913.69;2419500;80;25750;-85
2022/01/14 14:04:12;;;;;;;3.20;1.10;;;;;;;11.16;57.96;99903.69;2415551;80;25649;-84
2022/01/14 14:07:36;;;;;;;2.47;1.25;;;;;;;11.15;57.97;99910.64;2344767;83;26109;-85
2022/01/14 14:18:40;;;;;;;2.12;1.20;;;;;;;11.13;57.92;99897.98;2373386;83;25682;-87
2022/01/14 14:22:15;;;;;;;2.15;1.65;;;;;;;11.13;57.89;99909.73;2375555;82;25769;-88
2022/01/14 14:25:39;;;;;;;3.40;1.77;;;;;;;11.12;57.90;99918.42;2369917;83;25709;-89
2022/01/14 14:29:28;;;;;;;3.47;2.00;;;;;;;11.12;58.46;99921.03;2401382;81;25678;-86
2022/01/14 14:32:50;;;;;;;4.80;1.82;;;;;;;11.52;62.45;99938.09;2393820;81;25591;-86
2022/01/14 14:36:11;;;;;;;4.33;1.30;;;;;;;11.66;61.85;99940.00;2372289;83;25768;-84
2022/01/14 14:39:33;;;;;;;4.22;1.40;;;;;;;11.65;61.44;99950.88;2371500;82;25638;-85
2022/01/14 14:42:58;;;;;;;4.20;1.62;;;;;;;11.61;61.33;99955.62;2364464;82;25754;-83
2022/01/14 14:46:19;;;;;;;2.75;1.17;;;;;;;11.55;61.24;99948.58;2364453;82;25628;-84
2022/01/14 14:49:41;;;;;;;6.40;1.82;;;;;;;11.52;61.14;99952.45;2376794;82;25650;-84
2022/01/14 14:53:06;;;;;;;9.15;1.40;;;;;;;11.49;61.02;99964.59;2372854;82;25718;-83
2022/01/14 14:56:31;;;;;;;7.72;1.35;;;;;;;11.44;60.95;99974.98;2353965;82;25734;-85
2022/01/14 14:59:54;;;;;;;2.65;1.22;;;;;;;11.41;60.92;99976.67;2362209;83;25852;-83
2022/01/14 15:03:16;;;;;;;4.35;1.50;;;;;;;11.37;60.84;99979.63;2364178;83;25599;-83
2022/01/14 15:06:37;;;;;;;4.78;1.32;;;;;;;11.34;60.80;99980.50;2361751;83;25742;-84
2022/01/14 15:09:59;;;;;;;6.37;1.25;;;;;;;11.30;60.76;99976.06;2362878;82;25782;-85
2022/01/14 15:13:21;;;;;;;4.28;1.70;;;;;;;11.29;60.72;100046.52;2362684;83;26374;-88
2022/01/14 15:20:12;;;;;;;2.45;1.12;;;;;;;11.23;60.48;100096.86;2358707;83;25672;-84
2022/01/14 15:23:33;;;;;;;2.70;1.37;;;;;;;11.16;60.28;100109.36;2359975;83;25722;-87
2022/01/14 15:27:05;;;;;;;3.35;1.17;;;;;;;11.14;60.23;100118.01;2349518;82;25928;-88
2022/01/14 15:30:26;;;;;;;;;;;;;;;11.11;60.07;100134.52;2367452;83;25730;-84
2022/01/14 15:33:47;;;;;;;1.57;0.90;;;;;;;11.06;59.94;100143.97;2362028;83;25763;-86
2022/01/14 15:37:08;;;;;;;2.47;1.25;;;;;;;10.98;59.86;100138.63;2361624;83;26341;-89
2022/01/14 15:40:34;;;;;;;1.95;1.57;;;;;;;10.93;59.86;100142.86;2341246;83;25737;-86
2022/01/14 15:43:53;;;;;;;1.80;0.70;;;;;;;10.89;59.76;100144.97;2364854;83;25670;-86
2022/01/14 15:47:14;;;;;;;2.47;0.95;;;;;;;10.86;59.70;100142.30;2363718;83;25777;-86
2022/01/14 15:50:38;;;;;;;1.90;0.88;;;;;;;10.81;59.68;100137.45;2354260;82;25737;-85
2022/01/14 15:53:59;;;;;;;3.33;1.10;;;;;;;10.78;59.65;100153.91;2348147;83;25808;-87
2022/01/14 15:57:20;;;;;;;1.17;0.80;;;;;;;10.75;59.65;100168.61;2350491;83;25869;-84
2022/01/14 16:00:46;;;;;;;2.25;1.00;;;;;;;10.73;59.64;100162.48;2423201;80;26289;-87
2022/01/14 16:04:12;;;;;;;1.92;1.05;;;;;;;10.69;59.62;100160.66;2445594;80;26245;-85
2022/01/14 16:07:42;;;;;;;1.85;0.80;;;;;;;10.67;59.62;100159.34;2450173;80;25605;-87
2022/01/14 16:11:05;;;;;;;1.62;0.70;;;;;;;10.63;59.63;100161.02;2451674;80;25637;-86
2022/01/14 16:14:32;;;;;;;1.05;0.65;;;;;;;10.61;59.61;100159.22;2431494;79;25807;-87
2022/01/14 16:17:51;;;;;;;3.52;0.82;;;;;;;10.59;59.62;100158.30;2452019;80;25585;-87
2022/01/14 16:21:12;;;;;;;1.10;0.60;;;;;;;10.55;59.64;100167.78;2451305;80;25879;-86
2022/01/14 16:24:34;;;;;;;1.30;0.60;;;;;;;10.54;59.70;100182.11;2453195;80;25634;-86
2022/01/14 16:27:58;;;;;;;2.05;0.80;;;;;;;10.53;59.64;100188.14;2451937;79;25759;-86
2022/01/14 16:31:25;;;;;;;1.47;0.90;;;;;;;10.51;59.64;100191.16;2428146;79;25775;-87
2022/01/14 16:34:52;;;;;;;2.33;1.10;;;;;;;10.48;59.63;100202.39;2453107;78;25675;-86
2022/01/14 16:38:14;;;;;;;1.45;0.60;;;;;;;10.46;59.61;100199.30;2450680;80;25890;-86
2022/01/14 16:41:36;;;;;;;1.27;0.65;;;;;;;10.46;59.60;100205.81;2455736;80;25688;-86
2022/01/14 16:44:59;;;;;;;2.12;0.80;;;;;;;10.44;59.60;100217.95;2458042;80;25661;-88
2022/01/14 16:48:20;;;;;;;1.40;0.93;;;;;;;10.42;59.58;100217.02;2450082;80;25971;-86
2022/01/14 16:51:42;;;;;;;1.20;0.70;;;;;;;10.40;59.55;100228.30;2449336;80;25657;-85